• Join FlightAware (Why Join?)
  • Login
  • US Flag 
06:42AM EDT


 

Airport Tracker/Info


-or-


 

Live Flight TrackerFlight Track Log ✈ N1419D ✈ 06-Nov-2013 ✈ KGNV - KDAB

Flight Track Log - Related Links

Times and Time Zones

All times are in EST time to prevent confusion due to time zone crossing. See the N1419D flight status page for this flight to view local times or setup timezone preferences in your user account.

Time Position Orientation Groundspeed Altitude Reporting Facility
EST Latitude Longitude Course Direction KTS MPH feet Rate Location/Type
08:59PM 29.6253 -82.1186 85° East 84 97 4,600  Level Jacksonville Center
08:59PM 29.6211 -82.1042 108° East 74 85 5,000 540 Climbing Jacksonville Center
09:00PM 29.6228 -82.1096 92° East  Level Estimated
09:01PM 29.6252 -82.0798 85° East  Level FlightAware Approximate
09:01PM 29.6083 -82.0756 117° Southeast 82 94 5,600  Level Jacksonville Center
09:02PM 29.6275 -82.0500 85° East  Level FlightAware Approximate
09:02PM 29.5978 -82.0542 120° Southeast 84 97 6,000  Level Jacksonville Center
09:03PM 29.6298 -82.0201 85° East  Level FlightAware Approximate
09:03PM 29.5872 -82.0233 111° Southeast 108 124 6,000  Level Jacksonville Center
09:04PM 29.6321 -81.9903 85° East  Level FlightAware Approximate
09:04PM 29.5722 -81.9900 117° Southeast 111 128 6,000  Level Jacksonville Center
09:05PM 29.5594 -81.9592 115° Southeast 107 123 6,000  Level Jacksonville Center
09:05PM 29.5531 -81.9425 114° Southeast 106 122 6,000  Level Jacksonville Center
09:06PM 29.5425 -81.9161 115° Southeast 106 122 6,000  Level Jacksonville Center
09:07PM 29.5297 -81.8853 115° Southeast 105 121 6,100  Climbing Jacksonville Center
09:08PM 29.5169 -81.8569 117° Southeast 107 123 6,100  Level Jacksonville Center
09:09PM 29.5042 -81.8236 114° Southeast 109 125 6,100  Level Jacksonville Center
09:10PM 29.4914 -81.7950 117° Southeast 110 127 6,100  Level Jacksonville Center
09:11PM 29.4786 -81.7642 115° Southeast 108 124 6,100  Level Jacksonville Center
09:12PM 29.4658 -81.7358 117° Southeast 108 124 6,100  Level Jacksonville Center
09:13PM 29.4508 -81.7025 117° Southeast 110 127 6,100  Level Jacksonville Center
09:14PM 29.4422 -81.6739 109° East 111 128 6,100 -180 Level Jacksonville Center
09:15PM 29.4231 -81.6314 117° Southeast 114 131 5,800 -360 Descending Jacksonville Center
09:16PM 29.4081 -81.5981 117° Southeast 123 142 5,300 -540 Descending Jacksonville Center
09:17PM 29.3933 -81.5650 117° Southeast 120 138 4,800 -540 Descending Jacksonville Center
09:18PM 29.3761 -81.5342 123° Southeast 121 139 4,300 -540 Descending Jacksonville Center
09:19PM 29.3531 -81.5058 133° Southeast 127 146 3,800 -540 Descending Jacksonville Center
09:20PM 29.3297 -81.4800 136° Southeast 123 142 3,300 -360 Descending Jacksonville Center
09:21PM 29.3022 -81.4494 136° Southeast 119 137 3,100 -120 Descending Jacksonville Center
09:22PM 29.2789 -81.4214 134° Southeast 107 123 3,100 -120 Level Jacksonville Center
09:23PM 29.2556 -81.3956 136° Southeast 113 130 2,900 -360 Descending Jacksonville Center
09:24PM 29.2261 -81.3625 136° Southeast 125 144 2,400 -540 Descending Jacksonville Center
09:25PM 29.2111 -81.3461 136° Southeast 125 144 2,000 -360 Descending Jacksonville Center
09:26PM 29.1775 -81.3111 138° Southeast 121 139 1,700 -180 Descending Jacksonville Center
09:27PM 29.1606 -81.2900 133° Southeast 114 131 1,700  Level Jacksonville Center
09:28PM 29.1350 -81.2664 141° Southeast 113 130 1,700  Level Jacksonville Center
09:29PM 29.1161 -81.2406 130° Southeast 106 122 1,700  Level Jacksonville Center
09:30PM 29.1156 -81.2097 91° East 91 105 1,700  Level Jacksonville Center
09:31PM 29.1300 -81.1833 58° Northeast 91 105 1,700 -60 Level Jacksonville Center
09:32PM 29.1419 -81.1547 64° Northeast 93 107 1,600 -360 Descending Jacksonville Center
09:33PM 29.1500 -81.1308 69° East 99 114 1,100 -540 Descending Jacksonville Center
09:34PM 29.1642 -81.0947 66° East 84 97 500 -480 Descending Jacksonville Center
09:36PM 29.1664 -81.0553 86° East  Level FlightAware Approximate
09:43PM 29.1667 -81.0500 67° East  Level FlightAware Approximate
09:44PM 29.1799 -81.0581 67° East  Level Estimated
09:45PM 29.1799 -81.0581 67° East  Level Estimated